Time;durP1;ratioP1;P1;durP2;ratioP2;P2;SDS_P1;SDS_P2;PMS_P1;PMS_P2;Temp;Humidity;BMP_temperature;BMP_pressure;BME280_temperature;BME280_humidity;BME280_pressure;Samples;Min_cycle;Max_cycle;Signal;HPM_P1;HPM_P2
2021/04/22 00:02:24;;;;;;;18.07;11.90;;;;;;;6.67;82.15;96264.06;5079848;28;20040;-77
2021/04/22 00:04:50;;;;;;;18.50;13.77;;;;;;;6.66;82.40;96265.84;5079548;28;20020;-76
2021/04/22 00:07:17;;;;;;;18.60;12.83;;;;;;;6.68;81.94;96266.53;5079476;28;20108;-77
2021/04/22 00:09:43;;;;;;;17.43;12.43;;;;;;;6.68;81.99;96269.16;5079838;28;20111;-77
2021/04/22 00:12:09;;;;;;;18.80;12.20;;;;;;;6.73;81.70;96266.97;5061701;28;20461;-77
2021/04/22 00:14:36;;;;;;;18.60;14.27;;;;;;;6.73;82.10;96261.72;5082268;28;20119;-77
2021/04/22 00:17:06;;;;;;;21.90;14.50;;;;;;;6.78;81.93;96261.34;5058714;28;20016;-77
2021/04/22 00:19:32;;;;;;;19.20;13.13;;;;;;;6.71;81.84;96258.44;5082625;28;20485;-77
2021/04/22 00:21:58;;;;;;;18.37;13.50;;;;;;;6.73;82.44;96264.34;5061968;28;20031;-76
2021/04/22 00:24:23;;;;;;;19.60;13.97;;;;;;;6.73;82.56;96266.13;5071094;28;20043;-77
2021/04/22 00:26:49;;;;;;;16.47;12.87;;;;;;;6.74;82.48;96273.84;5062029;28;20470;-79
2021/04/22 00:29:15;;;;;;;18.20;13.17;;;;;;;6.79;82.17;96265.59;5063369;28;20032;-77
2021/04/22 00:31:40;;;;;;;20.20;13.23;;;;;;;6.78;81.99;96267.38;5062837;28;20028;-77
2021/04/22 00:34:06;;;;;;;17.97;13.27;;;;;;;6.77;82.40;96268.38;5085592;28;20032;-77
2021/04/22 00:36:32;;;;;;;20.00;14.60;;;;;;;6.85;81.58;96265.06;5081634;28;20033;-77
2021/04/22 00:38:57;;;;;;;18.20;13.87;;;;;;;6.84;81.46;96272.09;5073456;28;20648;-77
2021/04/22 00:41:23;;;;;;;17.50;11.93;;;;;;;6.78;81.31;96267.38;5065590;28;20035;-76
2021/04/22 00:43:52;;;;;;;16.70;12.30;;;;;;;6.82;81.19;96268.75;5079845;28;20047;-77
2021/04/22 00:46:18;;;;;;;17.77;12.60;;;;;;;6.78;81.49;96262.16;5069000;28;20066;-77
2021/04/22 00:48:44;;;;;;;16.87;12.47;;;;;;;6.71;81.58;96266.28;5079702;28;20408;-77
2021/04/22 00:51:10;;;;;;;17.40;12.63;;;;;;;6.52;82.78;96271.44;5071428;28;20050;-77
2021/04/22 00:53:40;;;;;;;19.03;13.07;;;;;;;6.52;82.16;96269.66;5072671;28;20059;-77
2021/04/22 00:56:07;;;;;;;17.10;12.73;;;;;;;6.50;82.90;96266.34;5077125;28;20108;-77
2021/04/22 00:58:33;;;;;;;16.77;12.30;;;;;;;6.51;82.60;96270.63;5061391;28;20732;-77
2021/04/22 01:01:00;;;;;;;16.07;12.00;;;;;;;6.53;83.07;96273.91;5061100;28;20028;-76
2021/04/22 01:03:27;;;;;;;17.70;13.43;;;;;;;6.56;82.74;96265.00;5077321;28;20036;-76
2021/04/22 01:06:03;;;;;;;19.47;13.60;;;;;;;6.53;83.87;96270.47;5070148;28;20032;-77
2021/04/22 01:08:29;;;;;;;19.33;13.97;;;;;;;6.59;83.30;96272.56;5085983;28;20058;-77
2021/04/22 01:10:55;;;;;;;19.13;14.83;;;;;;;6.38;83.92;96270.03;5040122;28;20658;-77
2021/04/22 01:13:21;;;;;;;19.83;14.03;;;;;;;6.34;84.42;96274.69;5056826;28;20040;-77
2021/04/22 01:15:48;;;;;;;20.67;14.50;;;;;;;6.27;83.85;96270.13;5086427;28;20032;-77
2021/04/22 01:18:14;;;;;;;20.57;13.73;;;;;;;6.26;83.98;96265.84;5067630;28;20032;-77
2021/04/22 01:20:46;;;;;;;19.57;14.23;;;;;;;6.21;83.82;96275.88;5078186;28;20020;-77
2021/04/22 01:23:12;;;;;;;19.23;13.10;;;;;;;6.24;83.64;96286.91;5061169;28;20068;-77
2021/04/22 01:25:46;;;;;;;22.00;14.57;;;;;;;6.22;83.09;96274.91;5067941;28;20024;-78
2021/04/22 01:28:15;;;;;;;18.83;13.60;;;;;;;6.19;84.14;96280.41;5079816;28;20038;-77
2021/04/22 01:30:51;;;;;;;20.13;14.30;;;;;;;6.19;84.19;96283.84;5069327;28;20090;-77
2021/04/22 01:33:27;;;;;;;20.50;14.27;;;;;;;6.18;83.79;96271.75;5055339;28;20032;-77
2021/04/22 01:35:56;;;;;;;17.00;13.23;;;;;;;6.19;83.24;96283.00;5055799;28;20024;-77
2021/04/22 01:38:23;;;;;;;19.60;13.10;;;;;;;6.20;83.73;96275.03;5073727;28;20024;-77
2021/04/22 01:40:49;;;;;;;17.57;12.67;;;;;;;6.17;83.27;96284.91;5080511;28;20032;-77
2021/04/22 01:43:15;;;;;;;17.87;12.47;;;;;;;6.11;83.18;96281.88;5056868;28;20584;-77
2021/04/22 01:45:40;;;;;;;19.47;12.70;;;;;;;6.00;83.44;96288.97;5072661;28;20029;-76
2021/04/22 01:48:07;;;;;;;17.80;12.53;;;;;;;6.00;83.87;96287.19;5067269;28;20111;-78
2021/04/22 01:50:35;;;;;;;19.10;12.83;;;;;;;6.00;83.23;96295.03;5083396;28;20035;-77
2021/04/22 01:53:01;;;;;;;19.57;12.23;;;;;;;5.96;83.20;96290.19;5064849;28;20044;-77
2021/04/22 01:55:36;;;;;;;17.63;13.53;;;;;;;5.94;83.69;96292.13;5079181;28;20550;-77
2021/04/22 01:58:03;;;;;;;19.03;13.27;;;;;;;5.87;83.95;96292.59;5058245;28;20497;-77
2021/04/22 02:00:35;;;;;;;19.47;13.47;;;;;;;5.88;83.98;96296.84;5063505;28;20097;-77
2021/04/22 02:03:02;;;;;;;16.50;11.60;;;;;;;5.84;83.90;96294.63;5058686;28;20334;-77
2021/04/22 02:05:27;;;;;;;17.77;12.70;;;;;;;5.75;83.30;96295.38;5079938;28;20034;-77
2021/04/22 02:07:53;;;;;;;19.00;12.83;;;;;;;5.73;83.16;96298.13;5061726;28;20118;-77
2021/04/22 02:10:20;;;;;;;17.43;11.60;;;;;;;5.71;83.68;96299.22;5080647;28;20073;-78
2021/04/22 02:12:46;;;;;;;16.80;11.97;;;;;;;5.64;83.62;96294.50;5078497;28;20040;-77
2021/04/22 02:15:19;;;;;;;16.83;11.73;;;;;;;5.64;83.98;96291.06;5060034;28;20119;-77
2021/04/22 02:17:45;;;;;;;15.10;9.75;;;;;;;5.60;84.62;96292.25;5048058;28;20483;-78
2021/04/22 02:20:12;;;;;;;17.47;11.83;;;;;;;5.61;84.36;96299.16;5067533;28;20039;-77
2021/04/22 02:22:39;;;;;;;16.93;13.10;;;;;;;5.53;84.20;96304.97;5059384;28;20723;-77
2021/04/22 02:25:06;;;;;;;16.80;12.07;;;;;;;5.48;84.14;96319.38;5058791;28;20035;-77
2021/04/22 02:27:33;;;;;;;17.67;12.77;;;;;;;5.28;84.85;96319.22;5069277;28;20028;-77
2021/04/22 02:29:59;;;;;;;17.13;13.13;;;;;;;4.87;86.17;96325.16;5052086;28;20028;-77
2021/04/22 02:32:25;;;;;;;18.07;12.60;;;;;;;4.83;86.07;96321.97;5072837;28;20032;-77
2021/04/22 02:34:50;;;;;;;17.63;11.93;;;;;;;4.80;85.77;96319.59;5062859;28;20020;-77
2021/04/22 02:37:16;;;;;;;18.63;12.03;;;;;;;4.78;85.88;96325.88;5073629;28;20032;-77
2021/04/22 02:39:42;;;;;;;19.70;13.83;;;;;;;4.70;86.12;96335.13;5061116;28;21555;-79
2021/04/22 02:42:07;;;;;;;17.60;12.63;;;;;;;4.73;86.14;96331.44;5082062;28;20070;-77
2021/04/22 02:44:33;;;;;;;16.43;12.23;;;;;;;4.77;86.42;96329.44;5080101;28;20704;-77
2021/04/22 02:46:59;;;;;;;17.70;12.73;;;;;;;4.72;85.72;96338.41;5071906;28;20033;-77
2021/04/22 02:49:25;;;;;;;16.17;11.30;;;;;;;4.77;85.99;96339.84;5080322;28;20075;-78
2021/04/22 02:51:50;;;;;;;16.63;11.30;;;;;;;4.71;85.46;96339.38;5054575;28;20032;-77
2021/04/22 02:54:16;;;;;;;16.13;11.40;;;;;;;4.72;86.04;96335.81;5081535;28;20020;-77
2021/04/22 02:56:41;;;;;;;17.43;11.23;;;;;;;4.74;84.92;96343.53;5071797;28;20036;-77
2021/04/22 02:59:07;;;;;;;17.10;11.63;;;;;;;4.70;85.15;96349.94;5066157;28;20025;-78
2021/04/22 03:01:34;;;;;;;15.97;11.00;;;;;;;4.67;85.62;96350.16;5076880;28;20051;-76
2021/04/22 03:04:00;;;;;;;15.47;11.53;;;;;;;4.61;86.50;96354.06;5077016;28;20024;-77
2021/04/22 03:06:25;;;;;;;16.83;11.63;;;;;;;4.60;86.80;96351.59;5069418;28;20032;-77
2021/04/22 03:08:51;;;;;;;17.00;11.33;;;;;;;4.57;86.72;96349.22;5070555;28;20405;-77
2021/04/22 03:11:17;;;;;;;17.57;11.33;;;;;;;4.49;86.94;96348.06;5062785;28;20618;-78
2021/04/22 03:13:42;;;;;;;17.30;11.47;;;;;;;4.57;86.89;96354.44;5061222;28;20028;-77
2021/04/22 03:16:08;;;;;;;15.97;12.27;;;;;;;4.49;87.20;96349.78;5059170;28;20068;-77
2021/04/22 03:18:34;;;;;;;20.53;13.10;;;;;;;4.60;87.21;96355.03;5068225;28;20032;-77
2021/04/22 03:20:59;;;;;;;21.13;13.87;;;;;;;4.59;87.18;96358.56;5067102;28;20090;-77
2021/04/22 03:23:25;;;;;;;20.00;14.20;;;;;;;4.59;87.68;96361.16;5059295;28;20042;-77
2021/04/22 03:25:51;;;;;;;21.30;13.50;;;;;;;4.59;87.79;96357.72;5061335;28;20052;-77
2021/04/22 03:28:16;;;;;;;19.00;13.43;;;;;;;4.57;87.54;96362.25;5054524;28;20735;-76
2021/04/22 03:30:42;;;;;;;23.37;14.40;;;;;;;4.52;87.40;96361.75;5086672;28;20081;-77
2021/04/22 03:33:08;;;;;;;18.57;13.83;;;;;;;4.56;87.16;96370.97;5068637;28;20552;-77
2021/04/22 03:35:34;;;;;;;19.77;13.40;;;;;;;4.60;87.01;96375.84;5055221;28;20032;-77
2021/04/22 03:38:00;;;;;;;23.87;16.93;;;;;;;4.55;87.99;96364.13;5063852;28;20047;-77
2021/04/22 03:40:27;;;;;;;23.03;16.37;;;;;;;4.54;87.73;96371.13;5068107;28;20032;-77
2021/04/22 03:42:54;;;;;;;19.67;13.90;;;;;;;4.55;87.72;96377.16;5053007;28;20097;-77
2021/04/22 03:45:21;;;;;;;22.63;14.23;;;;;;;4.65;87.26;96372.88;5078308;28;20024;-77
2021/04/22 03:47:47;;;;;;;21.80;14.73;;;;;;;4.68;87.11;96383.06;5075919;28;20484;-77
2021/04/22 03:50:15;;;;;;;19.67;13.73;;;;;;;4.65;86.95;96375.50;5082435;28;20029;-77
2021/04/22 03:52:43;;;;;;;22.40;14.93;;;;;;;4.69;87.04;96369.94;5079300;28;20164;-77
2021/04/22 03:55:10;;;;;;;20.07;14.53;;;;;;;4.67;86.97;96358.81;5079864;28;20089;-77
2021/04/22 03:57:36;;;;;;;21.10;14.30;;;;;;;4.62;87.50;96379.16;5048166;28;20191;-76
2021/04/22 04:00:08;;;;;;;23.73;14.93;;;;;;;4.55;87.37;96375.38;5066670;28;20654;-77
2021/04/22 04:02:34;;;;;;;19.87;14.37;;;;;;;4.51;87.38;96370.53;5049013;28;20513;-78
2021/04/22 04:04:59;;;;;;;20.23;14.27;;;;;;;4.51;87.30;96376.56;5061650;28;20461;-77
2021/04/22 04:07:25;;;;;;;20.63;13.80;;;;;;;4.37;87.63;96380.22;5075209;28;20041;-77
2021/04/22 04:09:51;;;;;;;21.50;15.77;;;;;;;4.35;87.97;96382.09;5077414;28;20040;-77
2021/04/22 04:12:16;;;;;;;20.20;14.33;;;;;;;4.36;87.62;96378.59;5074779;28;20055;-77
2021/04/22 04:14:42;;;;;;;18.10;13.23;;;;;;;4.36;87.96;96377.72;5075567;28;20033;-76
2021/04/22 04:17:07;;;;;;;18.60;13.47;;;;;;;4.38;87.52;96386.25;5070927;28;20040;-76
2021/04/22 04:19:33;;;;;;;22.87;15.27;;;;;;;4.37;86.98;96380.22;5073772;28;20020;-76
2021/04/22 04:21:59;;;;;;;19.90;13.90;;;;;;;4.39;87.08;96383.56;5075354;28;20497;-76
2021/04/22 04:24:25;;;;;;;26.07;16.00;;;;;;;4.39;87.27;96382.69;5061687;28;20103;-76
2021/04/22 04:26:50;;;;;;;28.47;16.43;;;;;;;4.45;86.96;96387.44;5064078;28;20028;-77
2021/04/22 04:29:16;;;;;;;20.97;14.60;;;;;;;4.43;86.98;96390.19;5070955;28;20107;-76
2021/04/22 04:31:42;;;;;;;20.30;14.20;;;;;;;4.41;86.49;96394.66;5072696;28;20078;-77
2021/04/22 04:34:07;;;;;;;25.13;16.73;;;;;;;4.38;87.49;96404.47;5073563;28;20028;-78
2021/04/22 04:36:33;;;;;;;32.03;20.67;;;;;;;4.34;87.43;96405.66;5076526;28;20039;-76
2021/04/22 04:38:59;;;;;;;22.37;17.13;;;;;;;4.34;87.94;96406.50;5071148;28;20043;-76
2021/04/22 04:41:24;;;;;;;23.50;15.20;;;;;;;4.45;87.68;96414.31;5086408;28;20020;-76
2021/04/22 04:43:50;;;;;;;23.10;15.90;;;;;;;4.51;87.41;96417.41;5079688;28;20024;-76
2021/04/22 04:46:18;;;;;;;25.60;17.10;;;;;;;4.58;87.40;96423.81;5062341;28;20141;-78
2021/04/22 04:48:47;;;;;;;26.90;17.57;;;;;;;4.58;88.08;96424.63;5078895;28;20123;-76
2021/04/22 04:51:13;;;;;;;22.47;16.77;;;;;;;4.59;86.87;96425.44;5080302;28;20415;-77
2021/04/22 04:53:39;;;;;;;24.80;16.57;;;;;;;4.57;87.71;96428.19;5071764;28;20031;-77
2021/04/22 04:56:05;;;;;;;23.70;17.13;;;;;;;4.59;86.91;96441.91;5080687;28;20090;-76
2021/04/22 04:58:31;;;;;;;23.90;16.33;;;;;;;4.64;86.84;96438.97;5063763;28;20032;-78
2021/04/22 05:00:56;;;;;;;21.03;16.00;;;;;;;4.83;87.16;96444.41;5069404;28;20051;-76
2021/04/22 05:03:22;;;;;;;25.40;17.40;;;;;;;4.92;86.27;96446.28;5080693;28;20031;-76
2021/04/22 05:05:48;;;;;;;33.57;25.93;;;;;;;5.03;86.12;96436.81;5083195;28;20036;-77
2021/04/22 05:08:13;;;;;;;36.90;27.43;;;;;;;5.11;86.10;96444.88;5055904;28;20020;-76
2021/04/22 05:10:39;;;;;;;21.40;15.83;;;;;;;5.08;85.14;96445.13;5064684;28;20024;-76
2021/04/22 05:13:05;;;;;;;17.10;12.03;;;;;;;5.00;85.03;96452.69;5075915;28;20031;-76
2021/04/22 05:15:30;;;;;;;18.73;13.83;;;;;;;5.27;84.58;96447.94;5082286;28;20043;-76
2021/04/22 05:17:56;;;;;;;19.17;14.50;;;;;;;5.40;83.60;96448.63;5078777;28;20115;-77
2021/04/22 05:20:21;;;;;;;19.80;14.20;;;;;;;5.46;83.49;96443.84;5080441;28;20041;-77
2021/04/22 05:22:47;;;;;;;20.33;14.23;;;;;;;5.59;82.69;96452.34;5059535;28;20033;-78
2021/04/22 05:25:13;;;;;;;19.33;14.30;;;;;;;5.75;83.35;96454.56;5055766;28;20048;-77
2021/04/22 05:27:39;;;;;;;24.30;14.97;;;;;;;5.86;82.07;96459.72;5064249;28;20035;-77
2021/04/22 05:30:06;;;;;;;22.60;16.43;;;;;;;5.90;82.53;96454.16;5082590;28;20368;-78
2021/04/22 05:32:31;;;;;;;21.63;14.70;;;;;;;5.98;81.66;96460.56;5062110;28;20048;-76
2021/04/22 05:34:57;;;;;;;19.53;14.40;;;;;;;5.97;81.85;96461.50;5069561;28;20493;-77
2021/04/22 05:37:24;;;;;;;23.23;14.57;;;;;;;5.95;82.37;96463.41;5060525;28;20032;-78
2021/04/22 05:39:50;;;;;;;18.90;13.70;;;;;;;6.19;81.75;96468.41;5058562;28;20058;-77
2021/04/22 05:42:15;;;;;;;21.37;14.93;;;;;;;6.42;80.50;96466.50;5070762;28;20529;-78
2021/04/22 05:44:42;;;;;;;22.13;15.37;;;;;;;6.33;80.19;96468.91;5070222;28;20634;-79
2021/04/22 05:47:09;;;;;;;26.20;15.53;;;;;;;6.43;79.70;96474.22;5048223;28;20036;-77
2021/04/22 05:49:35;;;;;;;21.67;15.03;;;;;;;6.52;79.18;96472.63;5064297;28;20089;-77
2021/04/22 05:52:00;;;;;;;20.47;15.90;;;;;;;6.62;78.71;96470.91;5050536;28;20020;-78
2021/04/22 05:54:27;;;;;;;21.10;15.57;;;;;;;6.76;77.78;96475.78;5069823;28;20032;-77
2021/04/22 05:56:54;;;;;;;22.33;15.87;;;;;;;7.21;76.97;96479.81;5078507;28;20469;-78
2021/04/22 05:59:20;;;;;;;21.00;16.03;;;;;;;7.18;76.92;96480.94;5069145;28;20035;-78
2021/04/22 06:01:46;;;;;;;25.10;15.53;;;;;;;7.17;76.90;96486.28;5063004;28;20028;-78
2021/04/22 06:04:12;;;;;;;25.23;16.60;;;;;;;7.08;77.43;96493.97;5066818;28;20508;-77
2021/04/22 06:06:37;;;;;;;20.97;15.60;;;;;;;7.34;76.24;96496.13;5063574;28;20063;-77
2021/04/22 06:09:04;;;;;;;23.20;15.30;;;;;;;7.42;76.62;96505.94;5086264;28;20063;-78
2021/04/22 06:11:31;;;;;;;23.50;15.20;;;;;;;7.57;76.00;96507.22;5069072;28;20094;-77
2021/04/22 06:13:56;;;;;;;22.90;16.47;;;;;;;7.59;75.00;96510.53;5072359;28;20394;-76
2021/04/22 06:16:22;;;;;;;21.27;14.93;;;;;;;7.77;74.34;96503.66;5083206;28;20032;-78
2021/04/22 06:18:48;;;;;;;19.20;12.90;;;;;;;7.47;75.62;96514.22;5079266;28;20048;-78
2021/04/22 06:21:15;;;;;;;20.43;13.97;;;;;;;7.53;74.57;96516.28;5084827;28;20032;-76
2021/04/22 06:23:41;;;;;;;19.47;14.07;;;;;;;7.58;74.73;96519.34;5090331;28;20031;-76
2021/04/22 06:26:06;;;;;;;23.07;14.53;;;;;;;7.68;74.91;96520.22;5073571;28;20481;-77
2021/04/22 06:28:32;;;;;;;28.90;19.70;;;;;;;7.90;74.02;96526.16;5081361;28;20109;-78
2021/04/22 06:30:58;;;;;;;26.63;17.33;;;;;;;7.66;73.31;96527.34;5077406;28;20041;-77
2021/04/22 06:33:24;;;;;;;20.13;14.10;;;;;;;7.50;74.63;96535.69;5060661;28;20032;-77
2021/04/22 06:35:49;;;;;;;20.33;12.80;;;;;;;7.67;73.92;96539.47;5065839;28;20032;-76
2021/04/22 06:38:16;;;;;;;21.87;12.03;;;;;;;7.69;73.85;96539.34;5075209;28;20078;-77
2021/04/22 06:40:41;;;;;;;19.43;12.97;;;;;;;7.78;73.50;96547.22;5056401;28;20485;-78
2021/04/22 06:43:12;;;;;;;21.53;13.33;;;;;;;7.86;73.18;96550.97;5048079;28;20036;-77
2021/04/22 06:45:40;;;;;;;21.23;12.80;;;;;;;8.12;72.95;96548.69;5079392;28;20067;-78
2021/04/22 06:48:08;;;;;;;18.13;12.20;;;;;;;8.00;73.15;96551.41;5076376;28;20085;-77
2021/04/22 06:50:34;;;;;;;15.23;10.87;;;;;;;7.87;73.10;96556.06;5077445;28;20047;-77
2021/04/22 06:53:00;;;;;;;17.37;11.30;;;;;;;7.90;72.88;96565.44;5068541;28;20025;-77
2021/04/22 06:55:28;;;;;;;19.03;10.87;;;;;;;7.97;71.47;96564.75;5038495;28;20534;-77
2021/04/22 06:57:54;;;;;;;17.53;11.23;;;;;;;7.86;72.59;96564.88;5073029;28;20020;-77
2021/04/22 07:00:24;;;;;;;18.50;10.83;;;;;;;7.64;72.84;96567.69;5064686;28;20103;-77
2021/04/22 07:02:50;;;;;;;20.53;11.03;;;;;;;7.96;71.64;96572.75;5083065;28;20128;-77
2021/04/22 07:05:17;;;;;;;20.70;10.50;;;;;;;7.56;71.83;96569.19;5062574;28;20416;-77
2021/04/22 07:07:44;;;;;;;22.77;12.27;;;;;;;7.51;72.94;96574.00;5073115;28;20115;-78
2021/04/22 07:10:11;;;;;;;20.57;12.17;;;;;;;7.78;70.97;96583.88;5082078;28;20047;-78
2021/04/22 07:12:37;;;;;;;23.10;11.10;;;;;;;7.53;72.20;96579.09;5049571;28;20094;-76
2021/04/22 07:15:05;;;;;;;20.13;10.00;;;;;;;7.55;71.75;96587.66;5070745;28;20645;-77
2021/04/22 07:17:31;;;;;;;19.63;11.40;;;;;;;8.06;70.57;96589.31;5074964;28;20033;-78
2021/04/22 07:19:57;;;;;;;16.93;9.93;;;;;;;7.71;70.62;96589.75;5065834;28;20035;-77
2021/04/22 07:22:24;;;;;;;14.23;8.57;;;;;;;8.19;68.45;96595.13;5078303;28;20023;-77
2021/04/22 07:24:51;;;;;;;17.33;9.10;;;;;;;7.92;69.34;96597.56;5055608;28;20027;-78
2021/04/22 07:27:17;;;;;;;26.47;9.83;;;;;;;8.15;68.82;96585.91;5051581;28;20025;-78
2021/04/22 07:29:44;;;;;;;18.87;9.13;;;;;;;8.38;67.66;96590.91;5074073;28;20027;-77
2021/04/22 07:32:12;;;;;;;22.67;9.10;;;;;;;7.91;68.01;96593.28;5057532;28;20185;-78
2021/04/22 07:34:38;;;;;;;16.10;8.37;;;;;;;7.84;67.04;96597.38;5064627;28;20062;-78
2021/04/22 07:37:04;;;;;;;20.40;8.90;;;;;;;7.53;67.59;96600.03;5079368;28;20032;-77
2021/04/22 07:39:30;;;;;;;16.30;8.93;;;;;;;7.57;67.61;96598.81;5059133;28;20025;-78
2021/04/22 07:41:56;;;;;;;18.23;8.23;;;;;;;7.63;67.01;96613.16;5088450;28;20401;-77
2021/04/22 07:44:22;;;;;;;16.30;8.23;;;;;;;7.84;65.47;96613.09;5075077;28;20060;-78
2021/04/22 07:46:50;;;;;;;15.57;7.17;;;;;;;7.88;63.65;96619.72;5080906;28;20035;-78
2021/04/22 07:49:16;;;;;;;14.77;7.07;;;;;;;7.92;63.20;96619.34;5082494;28;20050;-77
2021/04/22 07:51:42;;;;;;;18.80;7.70;;;;;;;7.93;62.60;96623.59;5048399;28;20033;-77
2021/04/22 07:54:07;;;;;;;18.63;7.47;;;;;;;8.02;61.99;96624.63;5068114;28;20443;-77
2021/04/22 07:56:33;;;;;;;13.00;6.10;;;;;;;8.08;61.48;96626.69;5062160;28;20033;-77
2021/04/22 07:58:59;;;;;;;12.93;6.47;;;;;;;8.27;60.74;96626.72;5069184;28;20174;-77
2021/04/22 08:01:25;;;;;;;16.97;7.27;;;;;;;8.55;59.97;96626.09;5048938;28;20075;-78
2021/04/22 08:03:51;;;;;;;12.73;6.03;;;;;;;8.65;58.91;96621.69;5076732;28;20371;-77
2021/04/22 08:06:18;;;;;;;14.83;6.13;;;;;;;8.55;58.06;96634.81;5067946;28;20043;-77
2021/04/22 08:08:43;;;;;;;18.43;9.10;;;;;;;8.25;58.41;96639.16;5090577;28;20021;-78
2021/04/22 08:11:09;;;;;;;15.87;7.80;;;;;;;8.10;59.23;96640.47;5077810;28;20035;-78
2021/04/22 08:13:37;;;;;;;18.27;7.43;;;;;;;8.00;58.86;96629.16;5062257;28;20078;-78
2021/04/22 08:16:05;;;;;;;15.10;6.60;;;;;;;8.35;58.21;96643.56;5068624;28;20088;-77
2021/04/22 08:18:31;;;;;;;16.87;6.60;;;;;;;8.25;58.05;96639.16;5083754;28;20036;-78
2021/04/22 08:20:58;;;;;;;14.93;6.50;;;;;;;8.69;57.51;96637.03;5069017;28;20035;-78
2021/04/22 08:23:27;;;;;;;15.17;6.60;;;;;;;8.66;57.51;96637.28;5059925;28;20013;-79
2021/04/22 08:25:56;;;;;;;12.93;6.80;;;;;;;9.38;57.24;96643.03;5072094;28;20039;-79
2021/04/22 08:28:23;;;;;;;14.50;6.73;;;;;;;9.48;56.06;96630.69;5064539;28;20029;-79
2021/04/22 08:30:53;;;;;;;14.53;7.23;;;;;;;9.52;54.45;96629.44;5074481;28;20042;-78
2021/04/22 08:33:22;;;;;;;14.63;6.23;;;;;;;9.21;56.28;96639.31;5058590;28;20738;-78
2021/04/22 08:35:48;;;;;;;19.97;6.30;;;;;;;9.21;56.48;96640.16;5077788;28;20024;-77
2021/04/22 08:38:14;;;;;;;13.40;6.43;;;;;;;9.91;55.40;96639.81;5061440;28;20561;-76
2021/04/22 08:40:41;;;;;;;11.60;6.30;;;;;;;9.87;54.75;96635.81;5062724;28;20165;-77
2021/04/22 08:43:07;;;;;;;15.27;6.17;;;;;;;9.68;54.35;96634.91;5079522;28;20028;-77
2021/04/22 08:45:33;;;;;;;20.50;7.20;;;;;;;10.92;52.20;96637.94;5079758;28;20032;-78
2021/04/22 08:48:00;;;;;;;14.07;6.73;;;;;;;11.02;50.48;96633.44;5064978;28;20069;-77
2021/04/22 08:50:28;;;;;;;13.53;6.80;;;;;;;11.19;50.29;96638.81;5078644;28;20039;-77
2021/04/22 08:52:58;;;;;;;17.30;6.23;;;;;;;11.77;49.26;96641.69;5072876;28;20020;-76
2021/04/22 08:55:28;;;;;;;12.17;7.30;;;;;;;11.77;49.30;96644.31;5073718;28;20040;-77
2021/04/22 08:57:54;;;;;;;12.57;6.83;;;;;;;11.91;48.53;96637.66;5074292;28;20111;-77
2021/04/22 09:00:24;;;;;;;14.03;7.63;;;;;;;12.38;47.26;96644.28;5082444;28;20099;-78
2021/04/22 09:02:50;;;;;;;13.20;6.10;;;;;;;11.81;48.45;96642.19;5063352;28;20489;-77
2021/04/22 09:05:17;;;;;;;12.33;6.27;;;;;;;12.78;47.92;96638.28;5076631;28;20135;-78
2021/04/22 09:07:44;;;;;;;15.40;9.10;;;;;;;13.44;45.63;96632.00;5068045;28;20032;-77
2021/04/22 09:10:12;;;;;;;10.80;5.67;;;;;;;13.44;46.33;96634.66;5054291;28;20025;-77
2021/04/22 09:12:38;;;;;;;14.43;6.77;;;;;;;14.45;43.07;96629.69;5067718;28;20097;-77
2021/04/22 09:15:12;;;;;;;14.97;7.67;;;;;;;14.38;44.26;96640.16;5059158;28;20025;-77
2021/04/22 09:17:39;;;;;;;13.40;6.60;;;;;;;14.54;42.61;96637.44;5074049;28;20056;-78
2021/04/22 09:20:08;;;;;;;12.70;7.60;;;;;;;14.30;42.66;96646.31;5081697;28;20091;-77
2021/04/22 09:22:42;;;;;;;12.40;7.60;;;;;;;15.50;40.58;96635.25;5079379;28;20036;-76
2021/04/22 09:25:23;;;;;;;11.80;5.93;;;;;;;14.52;41.34;96644.75;5080526;28;20027;-77
2021/04/22 09:27:49;;;;;;;13.20;6.27;;;;;;;13.47;42.25;96636.13;5070764;28;20035;-76
2021/04/22 09:30:17;;;;;;;10.63;6.53;;;;;;;13.59;42.50;96645.38;5060155;28;20027;-77
2021/04/22 09:32:43;;;;;;;13.47;5.93;;;;;;;14.90;39.99;96636.91;5068585;28;20028;-77
2021/04/22 09:35:15;;;;;;;15.23;6.77;;;;;;;15.99;38.53;96632.13;5058465;28;20493;-76
2021/04/22 09:37:48;;;;;;;19.10;10.17;;;;;;;14.85;40.70;96637.44;5082654;28;20367;-78
2021/04/22 09:40:18;;;;;;;15.17;6.90;;;;;;;14.69;39.71;96634.03;5087156;28;20032;-78
2021/04/22 09:42:45;;;;;;;14.13;5.53;;;;;;;15.84;38.70;96628.66;5070885;28;20445;-77
2021/04/22 09:45:14;;;;;;;12.53;5.10;;;;;;;16.04;38.79;96632.41;5054264;28;20029;-76
2021/04/22 09:47:40;;;;;;;11.93;5.33;;;;;;;15.63;38.02;96632.81;5086255;28;20024;-77
2021/04/22 09:50:12;;;;;;;8.70;5.03;;;;;;;16.24;36.90;96620.22;5080938;28;20031;-79
2021/04/22 09:52:44;;;;;;;9.27;5.05;;;;;;;15.96;36.58;96629.81;5062486;28;20130;-78
2021/04/22 09:55:13;;;;;;;10.20;4.60;;;;;;;16.62;35.58;96635.97;5079090;28;20024;-77
2021/04/22 09:57:39;;;;;;;12.37;4.83;;;;;;;16.52;36.60;96631.97;5076785;28;20036;-77
2021/04/22 10:00:13;;;;;;;8.30;4.37;;;;;;;17.15;35.67;96625.09;5050084;28;20037;-78
2021/04/22 10:02:53;;;;;;;13.73;4.60;;;;;;;16.76;35.56;96636.97;5076828;28;20037;-78
2021/04/22 10:05:33;;;;;;;14.27;5.43;;;;;;;16.48;34.86;96626.22;5064962;28;20043;-77
2021/04/22 10:08:11;;;;;;;8.57;6.10;;;;;;;17.12;34.13;96630.78;5057709;28;20036;-78
2021/04/22 10:10:40;;;;;;;12.43;5.60;;;;;;;15.55;36.61;96638.19;5056836;28;20091;-79
2021/04/22 10:13:10;;;;;;;10.07;5.03;;;;;;;15.42;33.17;96630.84;5068396;28;20122;-78
2021/04/22 10:15:38;;;;;;;8.80;4.63;;;;;;;15.38;33.55;96628.75;5083570;28;20169;-77
2021/04/22 10:18:05;;;;;;;11.27;5.43;;;;;;;15.98;34.91;96627.81;5067512;28;20031;-78
2021/04/22 10:20:35;;;;;;;10.63;4.50;;;;;;;16.78;31.93;96627.00;5047680;28;20041;-78
2021/04/22 10:23:02;;;;;;;11.87;5.13;;;;;;;16.21;32.11;96628.53;5051551;28;20375;-78
2021/04/22 10:25:30;;;;;;;10.43;4.50;;;;;;;16.25;30.93;96629.00;5065666;28;20036;-78
2021/04/22 10:28:10;;;;;;;9.97;4.77;;;;;;;16.59;30.80;96635.53;5087029;28;20025;-77
2021/04/22 10:30:38;;;;;;;13.13;4.43;;;;;;;16.79;31.04;96625.16;5070048;28;20102;-78
2021/04/22 10:33:05;;;;;;;10.20;5.27;;;;;;;17.84;27.51;96614.63;5057287;28;20074;-78
2021/04/22 10:35:33;;;;;;;11.48;4.47;;;;;;;16.91;29.85;96629.78;5073117;28;20036;-78
2021/04/22 10:38:01;;;;;;;7.28;4.00;;;;;;;16.95;29.77;96624.91;5053073;28;20032;-77
2021/04/22 10:40:30;;;;;;;12.27;4.78;;;;;;;16.67;30.90;96628.28;5061297;28;20040;-79
2021/04/22 10:42:59;;;;;;;10.82;6.22;;;;;;;16.95;27.50;96635.53;5056144;28;20032;-77
2021/04/22 10:45:27;;;;;;;10.85;5.22;;;;;;;18.27;26.16;96627.72;5056542;28;20025;-77
2021/04/22 10:47:53;;;;;;;13.52;8.98;;;;;;;17.16;27.11;96632.88;5067898;28;20028;-77
2021/04/22 10:50:36;;;;;;;6.20;2.70;;;;;;;17.37;23.45;96626.72;5082654;28;20392;-77
2021/04/22 10:53:07;;;;;;;5.95;2.33;;;;;;;17.72;20.96;96623.28;5049682;28;20044;-77
2021/04/22 10:55:34;;;;;;;4.80;2.08;;;;;;;17.44;23.40;96618.81;5078912;28;20039;-78
2021/04/22 10:58:13;;;;;;;9.15;2.90;;;;;;;18.68;21.93;96615.38;5073244;28;20016;-78
2021/04/22 11:00:59;;;;;;;7.35;2.10;;;;;;;17.34;18.98;96608.50;5071284;28;20032;-77
2021/04/22 11:03:28;;;;;;;10.73;5.18;;;;;;;17.22;19.57;96622.50;5052205;28;20025;-77
2021/04/22 11:06:10;;;;;;;19.00;9.77;;;;;;;17.69;18.33;96619.19;5061906;28;20580;-78
2021/04/22 11:08:41;;;;;;;23.23;15.10;;;;;;;18.33;20.07;96612.81;5057374;28;20552;-78
2021/04/22 11:11:24;;;;;;;26.83;18.58;;;;;;;18.18;20.13;96617.47;5088779;28;20043;-77
2021/04/22 11:14:01;;;;;;;8.13;4.22;;;;;;;17.99;20.93;96617.16;5067431;28;20036;-79
2021/04/22 11:16:30;;;;;;;6.85;2.55;;;;;;;17.25;21.18;96614.97;5055813;28;20147;-78
2021/04/22 11:18:56;;;;;;;7.20;2.95;;;;;;;17.81;22.79;96607.03;5077902;28;20024;-77
2021/04/22 11:21:23;;;;;;;6.90;3.10;;;;;;;18.26;23.07;96611.94;5067375;28;20131;-79
2021/04/22 11:23:49;;;;;;;5.53;2.30;;;;;;;18.29;21.52;96606.25;5074173;28;20036;-78
2021/04/22 11:26:21;;;;;;;6.65;3.03;;;;;;;18.13;23.18;96613.53;5052068;28;20155;-78
2021/04/22 11:28:47;;;;;;;10.80;3.40;;;;;;;17.48;24.51;96613.94;5068213;28;20040;-78